• Join FlightAware (Why Join?)
  • Login
  • US Flag 
07:34AM EST


 

Airport Tracker/Info


-or-


 

Live Flight TrackerFlight Track Log ✈ N50545 ✈ 12-May-2013 ✈ KBNA - KAUO

Flight Track Log - Related Links

Times and Time Zones

All times are in EDT time to prevent confusion due to time zone crossing. See the N50545 flight status page for this flight to view local times or setup timezone preferences in your user account.

Time Position Orientation Groundspeed Altitude Reporting Facility
EDT Latitude Longitude Course Direction KTS MPH feet Rate Location/Type
12:34PM 36.0333 -86.5000 163° South 96 110 6,100  Level Nashville TRACON
12:35PM 36.0167 -86.5000 180° South 103 119 6,400 360 Climbing Nashville TRACON
12:36PM 35.9833 -86.4833 158° South 118 136 6,900 420 Climbing Nashville TRACON
12:37PM 35.9500 -86.4833 180° South 117 135 7,300 360 Climbing Nashville TRACON
12:38PM 35.9167 -86.4667 158° South 115 132 7,700 360 Climbing Nashville TRACON
12:39PM 36.1226 -86.6775 163° South  Level Estimated
12:39PM 35.8667 -86.4500 165° South 115 132 8,200  Level Nashville TRACON
12:40PM 35.8500 -86.4500 180° South 113 130 8,500 300 Climbing Nashville TRACON
12:40PM 35.8319 -86.4422 161° South 110 127 8,600 360 Climbing Memphis Center
12:41PM 35.8067 -86.4331 164° South 110 127 9,000 300 Climbing Memphis Center
12:42PM 35.7769 -86.4217 163° South 110 127 9,200 300 Climbing Memphis Center
12:43PM 35.7497 -86.4103 161° South 110 127 9,600 300 Climbing Memphis Center
12:44PM 35.7200 -86.3989 163° South 103 119 9,900 300 Climbing Memphis Center
12:45PM 35.6906 -86.3900 166° South 109 125 10,200 300 Climbing Memphis Center
12:46PM 35.6633 -86.3836 169° South 104 120 10,500 300 Climbing Memphis Center
12:47PM 35.6381 -86.3772 168° South 104 120 10,800 300 Climbing Memphis Center
12:48PM 35.6106 -86.3683 165° South 104 120 11,100 240 Climbing Memphis Center
12:49PM 35.5853 -86.3594 164° South 104 120 11,300 120 Climbing Memphis Center
12:50PM 35.5578 -86.3478 161° South 104 120 11,400 60 Climbing Memphis Center
12:51PM 35.5264 -86.3442 175° South 104 120 11,500  Climbing Memphis Center
12:52PM 35.4906 -86.3333 166° South 121 139 11,500  Level Memphis Center
12:53PM 35.4525 -86.3197 164° South 121 139 11,500  Level Memphis Center
12:54PM 35.4189 -86.3086 165° South 126 145 11,500  Level Memphis Center
12:55PM 35.3831 -86.3003 169° South 126 145 11,500  Level Memphis Center
12:56PM 35.3494 -86.2892 165° South 126 145 11,500  Level Memphis Center
12:57PM 35.3156 -86.2756 162° South 126 145 11,500  Level Memphis Center
12:58PM 35.2797 -86.2647 166° South 126 145 11,500  Level Memphis Center
12:59PM 35.2461 -86.2536 165° South 126 145 11,500  Level Memphis Center
01:00PM 35.2125 -86.2450 168° South 126 145 11,500  Level Memphis Center
01:01PM 35.1764 -86.2317 163° South 126 145 11,500  Level Memphis Center
01:02PM 35.1447 -86.2181 161° South 126 145 11,500  Level Memphis Center
01:03PM 35.1089 -86.2094 169° South 126 145 11,500  Level Memphis Center
01:04PM 35.0731 -86.1961 163° South 126 145 11,500  Level Memphis Center
01:05PM 35.0372 -86.1853 166° South 131 151 11,500  Level Memphis Center
01:06PM 35.0033 -86.1717 162° South 131 151 11,500  Level Memphis Center
01:07PM 34.9656 -86.1608 167° South 131 151 11,500  Level Memphis Center
01:08PM 34.9317 -86.1500 165° South 126 145 11,500  Level Memphis Center
01:09PM 34.8981 -86.1414 168° South 126 145 11,500  Level Memphis Center
01:10PM 34.8622 -86.1306 166° South 126 145 11,500  Level Memphis Center
01:11PM 34.8264 -86.1197 166° South 126 145 11,500  Level Memphis Center
01:12PM 34.7886 -86.1089 167° South 126 145 11,500  Level Memphis Center
01:13PM 34.7528 -86.0981 166° South 126 145 11,500  Level Memphis Center
01:16PM 34.6792 -86.0722 164° South 116 133 11,500  Level Atlanta Center
01:17PM 34.6417 -86.0611 166° South 129 148 11,500 -60 Level Atlanta Center
01:18PM 34.6064 -86.0503 166° South 117 135 11,400 -240 Descending Atlanta Center
01:19PM 34.5692 -86.0392 166° South 142 163 11,100 -300 Descending Atlanta Center
01:20PM 34.5339 -86.0258 163° South 118 136 10,900 -240 Descending Atlanta Center
01:21PM 34.4964 -86.0147 166° South 134 154 10,700 -240 Descending Atlanta Center
01:22PM 34.4589 -86.0039 167° South 126 145 10,500 -240 Descending Atlanta Center
01:23PM 34.4217 -85.9903 163° South 126 145 10,300 -240 Descending Atlanta Center
01:24PM 34.3842 -85.9819 170° South 131 151 10,100 -240 Descending Atlanta Center
01:25PM 34.3469 -85.9686 164° South 136 157 9,900 -240 Descending Atlanta Center
01:26PM 34.3094 -85.9550 163° South 136 157 9,700 -240 Descending Atlanta Center
01:27PM 34.2722 -85.9442 166° South 141 162 9,500 -300 Descending Atlanta Center
01:28PM 34.2328 -85.9308 164° South 141 162 9,200 -300 Descending Atlanta Center
01:29PM 34.1911 -85.9222 170° South 141 162 9,000 -240 Descending Atlanta Center
01:30PM 34.1558 -85.9064 160° South 141 162 8,800 -240 Descending Atlanta Center
01:31PM 34.1164 -85.8956 167° South 141 162 8,600 -180 Descending Atlanta Center
01:32PM 34.0789 -85.8847 167° South 146 168 8,500 -180 Descending Atlanta Center
01:33PM 34.0375 -85.8714 165° South 146 168 8,300 -240 Descending Atlanta Center
01:34PM 34.0042 -85.8581 162° South 141 162 8,100 -240 Descending Atlanta Center